sensor_id;sensor_type;location;lat;lon;timestamp;P1;durP1;ratioP1;P2;durP2;ratioP2
24084;SDS011;12268;52.110;5.548;2024-01-30T00:01:54;31.85;;;19.33;;
24084;SDS011;12268;52.110;5.548;2024-01-30T00:04:20;31.48;;;19.92;;
24084;SDS011;12268;52.110;5.548;2024-01-30T00:06:46;31.23;;;20.10;;
24084;SDS011;12268;52.110;5.548;2024-01-30T00:09:11;32.22;;;19.95;;
24084;SDS011;12268;52.110;5.548;2024-01-30T00:11:37;32.25;;;20.40;;
24084;SDS011;12268;52.110;5.548;2024-01-30T00:14:03;30.63;;;20.00;;
24084;SDS011;12268;52.110;5.548;2024-01-30T00:16:29;29.00;;;19.02;;
24084;SDS011;12268;52.110;5.548;2024-01-30T00:18:55;31.67;;;18.77;;
24084;SDS011;12268;52.110;5.548;2024-01-30T00:21:21;32.55;;;20.13;;
24084;SDS011;12268;52.110;5.548;2024-01-30T00:23:47;31.45;;;18.95;;
24084;SDS011;12268;52.110;5.548;2024-01-30T00:26:12;35.70;;;19.65;;
24084;SDS011;12268;52.110;5.548;2024-01-30T00:28:40;30.35;;;18.23;;
24084;SDS011;12268;52.110;5.548;2024-01-30T00:31:06;27.17;;;18.45;;
24084;SDS011;12268;52.110;5.548;2024-01-30T00:33:31;30.13;;;18.40;;
24084;SDS011;12268;52.110;5.548;2024-01-30T00:35:57;30.38;;;18.58;;
24084;SDS011;12268;52.110;5.548;2024-01-30T00:38:23;28.05;;;17.15;;
24084;SDS011;12268;52.110;5.548;2024-01-30T00:40:48;26.55;;;18.38;;
24084;SDS011;12268;52.110;5.548;2024-01-30T00:43:14;27.70;;;17.98;;
24084;SDS011;12268;52.110;5.548;2024-01-30T00:45:40;29.08;;;19.30;;
24084;SDS011;12268;52.110;5.548;2024-01-30T00:48:06;25.58;;;17.08;;
24084;SDS011;12268;52.110;5.548;2024-01-30T00:50:32;31.35;;;18.20;;
24084;SDS011;12268;52.110;5.548;2024-01-30T00:52:57;27.88;;;18.45;;
24084;SDS011;12268;52.110;5.548;2024-01-30T00:55:23;30.45;;;17.85;;
24084;SDS011;12268;52.110;5.548;2024-01-30T00:57:48;29.77;;;19.02;;
24084;SDS011;12268;52.110;5.548;2024-01-30T01:00:14;27.75;;;17.77;;
24084;SDS011;12268;52.110;5.548;2024-01-30T01:02:43;27.70;;;17.55;;
24084;SDS011;12268;52.110;5.548;2024-01-30T01:05:09;26.40;;;17.15;;
24084;SDS011;12268;52.110;5.548;2024-01-30T01:07:35;27.15;;;18.15;;
24084;SDS011;12268;52.110;5.548;2024-01-30T01:10:01;28.27;;;18.15;;
24084;SDS011;12268;52.110;5.548;2024-01-30T01:12:27;25.13;;;17.75;;
24084;SDS011;12268;52.110;5.548;2024-01-30T01:14:53;26.30;;;18.05;;
24084;SDS011;12268;52.110;5.548;2024-01-30T01:17:18;29.20;;;18.50;;
24084;SDS011;12268;52.110;5.548;2024-01-30T01:19:44;27.50;;;17.50;;
24084;SDS011;12268;52.110;5.548;2024-01-30T01:22:10;27.67;;;17.58;;
24084;SDS011;12268;52.110;5.548;2024-01-30T01:24:36;27.92;;;17.30;;
24084;SDS011;12268;52.110;5.548;2024-01-30T01:27:01;27.65;;;17.42;;
24084;SDS011;12268;52.110;5.548;2024-01-30T01:29:27;26.27;;;17.27;;
24084;SDS011;12268;52.110;5.548;2024-01-30T01:31:56;30.42;;;17.50;;
24084;SDS011;12268;52.110;5.548;2024-01-30T01:34:22;28.45;;;17.33;;
24084;SDS011;12268;52.110;5.548;2024-01-30T01:36:48;28.92;;;17.75;;
24084;SDS011;12268;52.110;5.548;2024-01-30T01:39:14;27.30;;;18.17;;
24084;SDS011;12268;52.110;5.548;2024-01-30T01:41:40;27.70;;;17.27;;
24084;SDS011;12268;52.110;5.548;2024-01-30T01:44:06;30.10;;;17.25;;
24084;SDS011;12268;52.110;5.548;2024-01-30T01:46:32;28.20;;;17.90;;
24084;SDS011;12268;52.110;5.548;2024-01-30T01:49:02;26.15;;;17.70;;
24084;SDS011;12268;52.110;5.548;2024-01-30T01:51:31;31.40;;;18.23;;
24084;SDS011;12268;52.110;5.548;2024-01-30T01:53:59;27.75;;;17.48;;
24084;SDS011;12268;52.110;5.548;2024-01-30T01:58:56;26.73;;;16.42;;
24084;SDS011;12268;52.110;5.548;2024-01-30T02:01:29;26.20;;;16.50;;
24084;SDS011;12268;52.110;5.548;2024-01-30T02:03:56;33.58;;;17.33;;
24084;SDS011;12268;52.110;5.548;2024-01-30T02:06:21;26.58;;;16.63;;
24084;SDS011;12268;52.110;5.548;2024-01-30T02:08:47;27.35;;;16.33;;
24084;SDS011;12268;52.110;5.548;2024-01-30T02:11:13;24.13;;;16.95;;
24084;SDS011;12268;52.110;5.548;2024-01-30T02:13:39;27.80;;;17.73;;
24084;SDS011;12268;52.110;5.548;2024-01-30T02:16:06;32.03;;;17.50;;
24084;SDS011;12268;52.110;5.548;2024-01-30T02:18:31;27.60;;;17.02;;
24084;SDS011;12268;52.110;5.548;2024-01-30T02:20:58;24.95;;;16.52;;
24084;SDS011;12268;52.110;5.548;2024-01-30T02:23:26;32.55;;;17.80;;
24084;SDS011;12268;52.110;5.548;2024-01-30T02:25:52;26.55;;;18.27;;
24084;SDS011;12268;52.110;5.548;2024-01-30T02:28:18;34.60;;;17.08;;
24084;SDS011;12268;52.110;5.548;2024-01-30T02:30:45;28.38;;;17.55;;
24084;SDS011;12268;52.110;5.548;2024-01-30T02:33:11;27.35;;;16.50;;
24084;SDS011;12268;52.110;5.548;2024-01-30T02:35:37;30.98;;;17.20;;
24084;SDS011;12268;52.110;5.548;2024-01-30T02:38:03;29.65;;;16.95;;
24084;SDS011;12268;52.110;5.548;2024-01-30T02:40:29;32.47;;;18.17;;
24084;SDS011;12268;52.110;5.548;2024-01-30T02:42:55;26.50;;;17.17;;
24084;SDS011;12268;52.110;5.548;2024-01-30T02:45:21;33.15;;;17.50;;
24084;SDS011;12268;52.110;5.548;2024-01-30T02:47:47;33.00;;;17.13;;
24084;SDS011;12268;52.110;5.548;2024-01-30T02:50:12;34.42;;;17.42;;
24084;SDS011;12268;52.110;5.548;2024-01-30T02:52:40;27.73;;;17.45;;
24084;SDS011;12268;52.110;5.548;2024-01-30T02:55:05;28.35;;;17.27;;
24084;SDS011;12268;52.110;5.548;2024-01-30T02:57:31;26.88;;;17.98;;
24084;SDS011;12268;52.110;5.548;2024-01-30T02:59:57;25.58;;;17.35;;
24084;SDS011;12268;52.110;5.548;2024-01-30T03:02:23;32.05;;;16.90;;
24084;SDS011;12268;52.110;5.548;2024-01-30T03:04:48;27.92;;;16.58;;
24084;SDS011;12268;52.110;5.548;2024-01-30T03:07:14;27.70;;;17.58;;
24084;SDS011;12268;52.110;5.548;2024-01-30T03:09:41;28.08;;;17.05;;
24084;SDS011;12268;52.110;5.548;2024-01-30T03:12:07;27.25;;;17.10;;
24084;SDS011;12268;52.110;5.548;2024-01-30T03:14:32;27.50;;;16.70;;
24084;SDS011;12268;52.110;5.548;2024-01-30T03:16:58;26.48;;;16.55;;
24084;SDS011;12268;52.110;5.548;2024-01-30T03:19:24;27.58;;;17.33;;
24084;SDS011;12268;52.110;5.548;2024-01-30T03:21:50;26.23;;;17.27;;
24084;SDS011;12268;52.110;5.548;2024-01-30T03:24:16;26.20;;;16.73;;
24084;SDS011;12268;52.110;5.548;2024-01-30T03:26:42;27.10;;;16.30;;
24084;SDS011;12268;52.110;5.548;2024-01-30T03:29:08;26.67;;;15.70;;
24084;SDS011;12268;52.110;5.548;2024-01-30T03:31:33;23.88;;;15.63;;
24084;SDS011;12268;52.110;5.548;2024-01-30T03:33:59;25.42;;;16.85;;
24084;SDS011;12268;52.110;5.548;2024-01-30T03:36:25;27.48;;;15.95;;
24084;SDS011;12268;52.110;5.548;2024-01-30T03:38:51;24.77;;;16.10;;
24084;SDS011;12268;52.110;5.548;2024-01-30T03:41:16;28.02;;;17.35;;
24084;SDS011;12268;52.110;5.548;2024-01-30T03:43:42;27.30;;;16.70;;
24084;SDS011;12268;52.110;5.548;2024-01-30T03:46:08;27.17;;;15.77;;
24084;SDS011;12268;52.110;5.548;2024-01-30T03:48:33;24.63;;;16.73;;
24084;SDS011;12268;52.110;5.548;2024-01-30T03:50:59;27.90;;;16.48;;
24084;SDS011;12268;52.110;5.548;2024-01-30T03:53:25;27.23;;;17.73;;
24084;SDS011;12268;52.110;5.548;2024-01-30T03:55:51;26.27;;;16.58;;
24084;SDS011;12268;52.110;5.548;2024-01-30T03:58:16;25.33;;;16.35;;
24084;SDS011;12268;52.110;5.548;2024-01-30T04:00:42;27.63;;;16.48;;
24084;SDS011;12268;52.110;5.548;2024-01-30T04:03:07;29.83;;;16.83;;
24084;SDS011;12268;52.110;5.548;2024-01-30T04:05:33;22.75;;;16.38;;
24084;SDS011;12268;52.110;5.548;2024-01-30T04:07:59;25.38;;;16.48;;
24084;SDS011;12268;52.110;5.548;2024-01-30T04:10:24;26.23;;;15.18;;
24084;SDS011;12268;52.110;5.548;2024-01-30T04:12:50;23.27;;;16.17;;
24084;SDS011;12268;52.110;5.548;2024-01-30T04:15:16;23.10;;;15.90;;
24084;SDS011;12268;52.110;5.548;2024-01-30T04:17:43;23.98;;;15.85;;
24084;SDS011;12268;52.110;5.548;2024-01-30T04:20:13;24.95;;;15.55;;
24084;SDS011;12268;52.110;5.548;2024-01-30T04:22:45;25.10;;;15.02;;
24084;SDS011;12268;52.110;5.548;2024-01-30T04:25:12;26.50;;;16.40;;
24084;SDS011;12268;52.110;5.548;2024-01-30T04:27:38;22.92;;;15.57;;
24084;SDS011;12268;52.110;5.548;2024-01-30T04:30:04;21.98;;;15.38;;
24084;SDS011;12268;52.110;5.548;2024-01-30T04:32:31;22.35;;;14.82;;
24084;SDS011;12268;52.110;5.548;2024-01-30T04:34:57;22.48;;;14.77;;
24084;SDS011;12268;52.110;5.548;2024-01-30T04:37:22;21.92;;;15.25;;
24084;SDS011;12268;52.110;5.548;2024-01-30T04:39:48;22.38;;;13.73;;
24084;SDS011;12268;52.110;5.548;2024-01-30T04:42:14;23.25;;;14.25;;
24084;SDS011;12268;52.110;5.548;2024-01-30T04:44:39;20.60;;;13.82;;
24084;SDS011;12268;52.110;5.548;2024-01-30T04:47:05;20.77;;;14.63;;
24084;SDS011;12268;52.110;5.548;2024-01-30T04:49:33;28.10;;;14.63;;
24084;SDS011;12268;52.110;5.548;2024-01-30T04:51:59;21.88;;;13.68;;
24084;SDS011;12268;52.110;5.548;2024-01-30T04:54:25;20.98;;;13.48;;
24084;SDS011;12268;52.110;5.548;2024-01-30T04:56:50;22.25;;;13.63;;
24084;SDS011;12268;52.110;5.548;2024-01-30T04:59:16;22.63;;;14.23;;
24084;SDS011;12268;52.110;5.548;2024-01-30T05:01:42;25.13;;;15.23;;
24084;SDS011;12268;52.110;5.548;2024-01-30T05:04:07;20.48;;;14.10;;
24084;SDS011;12268;52.110;5.548;2024-01-30T05:06:34;22.30;;;15.10;;
24084;SDS011;12268;52.110;5.548;2024-01-30T05:08:59;22.42;;;14.68;;
24084;SDS011;12268;52.110;5.548;2024-01-30T05:11:25;20.05;;;13.50;;
24084;SDS011;12268;52.110;5.548;2024-01-30T05:13:50;21.20;;;13.85;;
24084;SDS011;12268;52.110;5.548;2024-01-30T05:16:16;22.50;;;14.18;;
24084;SDS011;12268;52.110;5.548;2024-01-30T05:18:41;21.77;;;13.63;;
24084;SDS011;12268;52.110;5.548;2024-01-30T05:21:07;20.75;;;13.82;;
24084;SDS011;12268;52.110;5.548;2024-01-30T05:23:33;22.05;;;13.70;;
24084;SDS011;12268;52.110;5.548;2024-01-30T05:25:59;20.60;;;12.82;;
24084;SDS011;12268;52.110;5.548;2024-01-30T05:28:26;21.27;;;13.82;;
24084;SDS011;12268;52.110;5.548;2024-01-30T05:30:51;24.55;;;13.75;;
24084;SDS011;12268;52.110;5.548;2024-01-30T05:33:17;23.80;;;13.77;;
24084;SDS011;12268;52.110;5.548;2024-01-30T05:35:43;22.27;;;14.02;;
24084;SDS011;12268;52.110;5.548;2024-01-30T05:38:08;20.08;;;13.90;;
24084;SDS011;12268;52.110;5.548;2024-01-30T05:40:34;22.52;;;13.20;;
24084;SDS011;12268;52.110;5.548;2024-01-30T05:42:59;24.92;;;13.20;;
24084;SDS011;12268;52.110;5.548;2024-01-30T05:45:26;22.80;;;13.90;;
24084;SDS011;12268;52.110;5.548;2024-01-30T05:47:52;20.40;;;12.57;;
24084;SDS011;12268;52.110;5.548;2024-01-30T05:50:18;22.42;;;13.65;;
24084;SDS011;12268;52.110;5.548;2024-01-30T05:52:44;22.15;;;12.75;;
24084;SDS011;12268;52.110;5.548;2024-01-30T05:55:10;21.85;;;13.68;;
24084;SDS011;12268;52.110;5.548;2024-01-30T05:57:36;25.42;;;13.60;;
24084;SDS011;12268;52.110;5.548;2024-01-30T06:00:03;20.00;;;12.55;;
24084;SDS011;12268;52.110;5.548;2024-01-30T06:02:32;26.08;;;13.55;;
24084;SDS011;12268;52.110;5.548;2024-01-30T06:04:58;21.05;;;13.80;;
24084;SDS011;12268;52.110;5.548;2024-01-30T06:07:23;19.08;;;13.35;;
24084;SDS011;12268;52.110;5.548;2024-01-30T06:09:49;20.08;;;13.68;;
24084;SDS011;12268;52.110;5.548;2024-01-30T06:12:15;18.73;;;12.77;;
24084;SDS011;12268;52.110;5.548;2024-01-30T06:14:40;28.50;;;13.73;;
24084;SDS011;12268;52.110;5.548;2024-01-30T06:17:07;21.80;;;12.82;;
24084;SDS011;12268;52.110;5.548;2024-01-30T06:19:33;22.35;;;12.88;;
24084;SDS011;12268;52.110;5.548;2024-01-30T06:21:59;25.38;;;13.60;;
24084;SDS011;12268;52.110;5.548;2024-01-30T06:24:25;23.63;;;12.63;;
24084;SDS011;12268;52.110;5.548;2024-01-30T06:26:50;19.00;;;12.30;;
24084;SDS011;12268;52.110;5.548;2024-01-30T06:29:16;21.77;;;12.57;;
24084;SDS011;12268;52.110;5.548;2024-01-30T06:31:42;19.58;;;12.50;;
24084;SDS011;12268;52.110;5.548;2024-01-30T06:34:08;20.67;;;12.35;;
24084;SDS011;12268;52.110;5.548;2024-01-30T06:36:34;22.80;;;13.10;;
24084;SDS011;12268;52.110;5.548;2024-01-30T06:39:01;21.17;;;12.98;;
24084;SDS011;12268;52.110;5.548;2024-01-30T06:41:28;21.65;;;12.55;;
24084;SDS011;12268;52.110;5.548;2024-01-30T06:43:53;19.52;;;12.48;;
24084;SDS011;12268;52.110;5.548;2024-01-30T06:46:19;19.15;;;12.30;;
24084;SDS011;12268;52.110;5.548;2024-01-30T06:48:45;17.48;;;11.70;;
24084;SDS011;12268;52.110;5.548;2024-01-30T06:51:10;20.30;;;10.73;;
24084;SDS011;12268;52.110;5.548;2024-01-30T06:53:37;17.63;;;11.02;;
24084;SDS011;12268;52.110;5.548;2024-01-30T06:56:03;18.23;;;11.85;;
24084;SDS011;12268;52.110;5.548;2024-01-30T06:58:29;16.92;;;11.77;;
24084;SDS011;12268;52.110;5.548;2024-01-30T07:00:55;22.83;;;11.05;;
24084;SDS011;12268;52.110;5.548;2024-01-30T07:03:21;17.48;;;11.65;;
24084;SDS011;12268;52.110;5.548;2024-01-30T07:05:47;19.08;;;11.20;;
24084;SDS011;12268;52.110;5.548;2024-01-30T07:08:12;16.60;;;10.73;;
24084;SDS011;12268;52.110;5.548;2024-01-30T07:10:38;18.25;;;11.23;;
24084;SDS011;12268;52.110;5.548;2024-01-30T07:13:04;15.43;;;10.25;;
24084;SDS011;12268;52.110;5.548;2024-01-30T07:15:30;17.40;;;11.10;;
24084;SDS011;12268;52.110;5.548;2024-01-30T07:17:56;15.60;;;10.18;;
24084;SDS011;12268;52.110;5.548;2024-01-30T07:20:22;15.98;;;10.23;;
24084;SDS011;12268;52.110;5.548;2024-01-30T07:22:47;17.80;;;11.00;;
24084;SDS011;12268;52.110;5.548;2024-01-30T07:25:13;14.30;;;10.02;;
24084;SDS011;12268;52.110;5.548;2024-01-30T07:27:39;14.07;;;9.43;;
24084;SDS011;12268;52.110;5.548;2024-01-30T07:30:05;15.02;;;8.60;;
24084;SDS011;12268;52.110;5.548;2024-01-30T07:32:31;14.25;;;9.93;;
24084;SDS011;12268;52.110;5.548;2024-01-30T07:34:57;16.10;;;10.40;;
24084;SDS011;12268;52.110;5.548;2024-01-30T07:37:22;18.00;;;9.70;;
24084;SDS011;12268;52.110;5.548;2024-01-30T07:39:48;15.50;;;10.35;;
24084;SDS011;12268;52.110;5.548;2024-01-30T07:42:13;17.25;;;10.55;;
24084;SDS011;12268;52.110;5.548;2024-01-30T07:44:39;14.60;;;8.63;;
24084;SDS011;12268;52.110;5.548;2024-01-30T07:47:05;14.00;;;10.45;;
24084;SDS011;12268;52.110;5.548;2024-01-30T07:49:30;13.02;;;9.55;;
24084;SDS011;12268;52.110;5.548;2024-01-30T07:51:58;19.77;;;10.23;;
24084;SDS011;12268;52.110;5.548;2024-01-30T07:54:25;17.58;;;10.30;;
24084;SDS011;12268;52.110;5.548;2024-01-30T07:56:50;16.25;;;9.23;;
24084;SDS011;12268;52.110;5.548;2024-01-30T07:59:16;14.27;;;9.35;;
24084;SDS011;12268;52.110;5.548;2024-01-30T08:01:41;12.48;;;9.20;;
24084;SDS011;12268;52.110;5.548;2024-01-30T08:04:07;13.77;;;9.10;;
24084;SDS011;12268;52.110;5.548;2024-01-30T08:06:33;13.50;;;9.38;;
24084;SDS011;12268;52.110;5.548;2024-01-30T08:08:58;15.45;;;10.10;;
24084;SDS011;12268;52.110;5.548;2024-01-30T08:11:24;18.70;;;9.65;;
24084;SDS011;12268;52.110;5.548;2024-01-30T08:13:54;16.40;;;10.07;;
24084;SDS011;12268;52.110;5.548;2024-01-30T08:16:20;14.60;;;9.65;;
24084;SDS011;12268;52.110;5.548;2024-01-30T08:18:46;20.73;;;10.45;;
24084;SDS011;12268;52.110;5.548;2024-01-30T08:21:11;17.90;;;10.65;;
24084;SDS011;12268;52.110;5.548;2024-01-30T08:23:40;16.05;;;11.30;;
24084;SDS011;12268;52.110;5.548;2024-01-30T08:26:06;17.17;;;10.85;;
24084;SDS011;12268;52.110;5.548;2024-01-30T08:28:32;17.70;;;10.07;;
24084;SDS011;12268;52.110;5.548;2024-01-30T08:30:57;18.40;;;11.73;;
24084;SDS011;12268;52.110;5.548;2024-01-30T08:33:23;15.52;;;10.25;;
24084;SDS011;12268;52.110;5.548;2024-01-30T08:35:49;14.50;;;10.35;;
24084;SDS011;12268;52.110;5.548;2024-01-30T08:38:14;15.80;;;10.10;;
24084;SDS011;12268;52.110;5.548;2024-01-30T08:40:40;14.85;;;10.18;;
24084;SDS011;12268;52.110;5.548;2024-01-30T08:43:05;16.25;;;11.35;;
24084;SDS011;12268;52.110;5.548;2024-01-30T08:45:31;19.48;;;11.32;;
24084;SDS011;12268;52.110;5.548;2024-01-30T08:47:57;18.42;;;10.63;;
24084;SDS011;12268;52.110;5.548;2024-01-30T08:50:22;15.80;;;10.90;;
24084;SDS011;12268;52.110;5.548;2024-01-30T08:52:48;17.73;;;10.70;;
24084;SDS011;12268;52.110;5.548;2024-01-30T08:55:13;20.13;;;10.95;;
24084;SDS011;12268;52.110;5.548;2024-01-30T08:57:39;21.38;;;11.15;;
24084;SDS011;12268;52.110;5.548;2024-01-30T09:00:05;19.85;;;10.98;;
24084;SDS011;12268;52.110;5.548;2024-01-30T09:02:33;17.98;;;11.35;;
24084;SDS011;12268;52.110;5.548;2024-01-30T09:04:59;17.85;;;10.73;;
24084;SDS011;12268;52.110;5.548;2024-01-30T09:07:24;19.25;;;10.82;;
24084;SDS011;12268;52.110;5.548;2024-01-30T09:09:50;19.52;;;12.02;;
24084;SDS011;12268;52.110;5.548;2024-01-30T09:12:16;16.75;;;10.88;;
24084;SDS011;12268;52.110;5.548;2024-01-30T09:14:41;21.83;;;10.70;;
24084;SDS011;12268;52.110;5.548;2024-01-30T09:17:07;16.58;;;10.80;;
24084;SDS011;12268;52.110;5.548;2024-01-30T09:19:33;14.70;;;10.32;;
24084;SDS011;12268;52.110;5.548;2024-01-30T09:21:58;23.83;;;12.00;;
24084;SDS011;12268;52.110;5.548;2024-01-30T09:24:25;18.15;;;10.30;;
24084;SDS011;12268;52.110;5.548;2024-01-30T09:26:51;17.27;;;10.57;;
24084;SDS011;12268;52.110;5.548;2024-01-30T09:29:17;14.60;;;8.50;;
24084;SDS011;12268;52.110;5.548;2024-01-30T09:31:43;21.50;;;11.20;;
24084;SDS011;12268;52.110;5.548;2024-01-30T09:34:10;17.75;;;10.55;;
24084;SDS011;12268;52.110;5.548;2024-01-30T09:36:35;23.42;;;11.93;;
24084;SDS011;12268;52.110;5.548;2024-01-30T09:39:01;16.52;;;11.38;;
24084;SDS011;12268;52.110;5.548;2024-01-30T09:41:27;18.02;;;11.23;;
24084;SDS011;12268;52.110;5.548;2024-01-30T09:43:54;18.42;;;11.20;;
24084;SDS011;12268;52.110;5.548;2024-01-30T09:46:22;20.23;;;11.57;;
24084;SDS011;12268;52.110;5.548;2024-01-30T09:48:52;16.27;;;11.18;;
24084;SDS011;12268;52.110;5.548;2024-01-30T09:51:20;20.25;;;10.80;;
24084;SDS011;12268;52.110;5.548;2024-01-30T09:53:47;16.38;;;10.43;;
24084;SDS011;12268;52.110;5.548;2024-01-30T09:56:13;19.30;;;10.73;;
24084;SDS011;12268;52.110;5.548;2024-01-30T09:58:39;19.92;;;11.18;;
24084;SDS011;12268;52.110;5.548;2024-01-30T10:01:05;18.52;;;11.65;;
24084;SDS011;12268;52.110;5.548;2024-01-30T10:03:31;22.70;;;11.52;;
24084;SDS011;12268;52.110;5.548;2024-01-30T10:05:57;18.17;;;10.10;;
24084;SDS011;12268;52.110;5.548;2024-01-30T10:08:23;16.42;;;10.43;;
24084;SDS011;12268;52.110;5.548;2024-01-30T10:10:49;17.40;;;9.27;;
24084;SDS011;12268;52.110;5.548;2024-01-30T10:13:15;18.98;;;10.23;;
24084;SDS011;12268;52.110;5.548;2024-01-30T10:15:41;19.92;;;10.55;;
24084;SDS011;12268;52.110;5.548;2024-01-30T10:18:08;16.05;;;9.43;;
24084;SDS011;12268;52.110;5.548;2024-01-30T10:20:35;13.63;;;9.50;;
24084;SDS011;12268;52.110;5.548;2024-01-30T10:23:01;13.45;;;9.40;;
24084;SDS011;12268;52.110;5.548;2024-01-30T10:25:27;14.13;;;9.20;;
24084;SDS011;12268;52.110;5.548;2024-01-30T10:27:53;18.73;;;9.30;;
24084;SDS011;12268;52.110;5.548;2024-01-30T10:30:22;12.93;;;9.00;;
24084;SDS011;12268;52.110;5.548;2024-01-30T10:32:48;15.10;;;9.50;;
24084;SDS011;12268;52.110;5.548;2024-01-30T10:35:13;15.68;;;9.15;;
24084;SDS011;12268;52.110;5.548;2024-01-30T10:37:39;16.88;;;8.98;;
24084;SDS011;12268;52.110;5.548;2024-01-30T10:40:08;21.30;;;9.23;;
24084;SDS011;12268;52.110;5.548;2024-01-30T10:42:37;14.27;;;9.57;;
24084;SDS011;12268;52.110;5.548;2024-01-30T10:45:10;17.33;;;8.82;;
24084;SDS011;12268;52.110;5.548;2024-01-30T10:47:44;16.80;;;8.32;;
24084;SDS011;12268;52.110;5.548;2024-01-30T10:50:14;12.95;;;8.90;;
24084;SDS011;12268;52.110;5.548;2024-01-30T10:52:41;17.88;;;9.48;;
24084;SDS011;12268;52.110;5.548;2024-01-30T10:55:09;16.20;;;10.15;;
24084;SDS011;12268;52.110;5.548;2024-01-30T10:57:35;16.40;;;9.93;;
24084;SDS011;12268;52.110;5.548;2024-01-30T11:00:06;10.70;;;7.20;;
24084;SDS011;12268;52.110;5.548;2024-01-30T11:02:39;14.73;;;8.63;;
24084;SDS011;12268;52.110;5.548;2024-01-30T11:05:06;16.92;;;9.93;;
24084;SDS011;12268;52.110;5.548;2024-01-30T11:07:33;13.43;;;9.07;;
24084;SDS011;12268;52.110;5.548;2024-01-30T11:12:26;11.00;;;8.05;;
24084;SDS011;12268;52.110;5.548;2024-01-30T11:15:05;16.98;;;8.90;;
24084;SDS011;12268;52.110;5.548;2024-01-30T11:20:15;11.18;;;7.47;;
24084;SDS011;12268;52.110;5.548;2024-01-30T11:22:49;14.20;;;8.35;;
24084;SDS011;12268;52.110;5.548;2024-01-30T11:25:17;17.40;;;8.02;;
24084;SDS011;12268;52.110;5.548;2024-01-30T11:27:45;8.52;;;5.18;;
24084;SDS011;12268;52.110;5.548;2024-01-30T11:33:07;11.57;;;7.70;;
24084;SDS011;12268;52.110;5.548;2024-01-30T11:35:37;8.63;;;4.70;;
24084;SDS011;12268;52.110;5.548;2024-01-30T11:38:07;6.45;;;3.65;;
24084;SDS011;12268;52.110;5.548;2024-01-30T11:40:34;4.22;;;2.80;;
24084;SDS011;12268;52.110;5.548;2024-01-30T11:43:03;8.38;;;3.53;;
24084;SDS011;12268;52.110;5.548;2024-01-30T11:45:30;10.15;;;4.53;;
24084;SDS011;12268;52.110;5.548;2024-01-30T11:47:56;5.53;;;3.78;;
24084;SDS011;12268;52.110;5.548;2024-01-30T11:50:23;7.15;;;4.15;;
24084;SDS011;12268;52.110;5.548;2024-01-30T11:52:50;8.32;;;4.45;;
24084;SDS011;12268;52.110;5.548;2024-01-30T11:55:15;6.57;;;3.92;;
24084;SDS011;12268;52.110;5.548;2024-01-30T11:57:42;7.95;;;4.30;;
24084;SDS011;12268;52.110;5.548;2024-01-30T12:00:16;10.40;;;3.97;;
24084;SDS011;12268;52.110;5.548;2024-01-30T12:02:49;5.60;;;2.00;;
24084;SDS011;12268;52.110;5.548;2024-01-30T12:05:16;5.60;;;2.58;;
24084;SDS011;12268;52.110;5.548;2024-01-30T12:07:44;6.15;;;3.53;;
24084;SDS011;12268;52.110;5.548;2024-01-30T12:10:11;5.28;;;3.28;;
24084;SDS011;12268;52.110;5.548;2024-01-30T12:12:39;6.35;;;4.03;;
24084;SDS011;12268;52.110;5.548;2024-01-30T12:15:06;7.95;;;3.40;;
24084;SDS011;12268;52.110;5.548;2024-01-30T12:17:33;5.22;;;2.20;;
24084;SDS011;12268;52.110;5.548;2024-01-30T12:20:09;7.00;;;2.83;;
24084;SDS011;12268;52.110;5.548;2024-01-30T12:22:36;2.67;;;1.83;;
24084;SDS011;12268;52.110;5.548;2024-01-30T12:25:07;5.80;;;3.10;;
24084;SDS011;12268;52.110;5.548;2024-01-30T12:27:34;6.63;;;2.45;;
24084;SDS011;12268;52.110;5.548;2024-01-30T12:30:00;7.72;;;2.83;;
24084;SDS011;12268;52.110;5.548;2024-01-30T12:32:26;4.82;;;2.50;;
24084;SDS011;12268;52.110;5.548;2024-01-30T12:34:54;5.03;;;2.20;;
24084;SDS011;12268;52.110;5.548;2024-01-30T12:37:21;3.35;;;3.03;;
24084;SDS011;12268;52.110;5.548;2024-01-30T12:39:49;3.42;;;2.35;;
24084;SDS011;12268;52.110;5.548;2024-01-30T12:42:16;5.00;;;3.55;;
24084;SDS011;12268;52.110;5.548;2024-01-30T12:44:42;2.90;;;2.10;;
24084;SDS011;12268;52.110;5.548;2024-01-30T12:47:08;8.55;;;4.00;;
24084;SDS011;12268;52.110;5.548;2024-01-30T12:49:35;7.07;;;4.68;;
24084;SDS011;12268;52.110;5.548;2024-01-30T12:52:01;3.70;;;3.05;;
24084;SDS011;12268;52.110;5.548;2024-01-30T12:54:26;7.05;;;3.45;;
24084;SDS011;12268;52.110;5.548;2024-01-30T12:56:52;4.63;;;3.15;;
24084;SDS011;12268;52.110;5.548;2024-01-30T12:59:18;5.25;;;3.33;;
24084;SDS011;12268;52.110;5.548;2024-01-30T13:01:43;5.22;;;3.05;;
24084;SDS011;12268;52.110;5.548;2024-01-30T13:04:09;8.27;;;3.38;;
24084;SDS011;12268;52.110;5.548;2024-01-30T13:06:35;11.20;;;2.85;;
24084;SDS011;12268;52.110;5.548;2024-01-30T13:09:00;6.30;;;2.90;;
24084;SDS011;12268;52.110;5.548;2024-01-30T13:11:26;6.93;;;3.50;;
24084;SDS011;12268;52.110;5.548;2024-01-30T13:13:51;5.18;;;2.88;;
24084;SDS011;12268;52.110;5.548;2024-01-30T13:16:17;5.53;;;2.80;;
24084;SDS011;12268;52.110;5.548;2024-01-30T13:18:43;6.30;;;3.53;;
24084;SDS011;12268;52.110;5.548;2024-01-30T13:21:09;5.47;;;3.17;;
24084;SDS011;12268;52.110;5.548;2024-01-30T13:23:35;4.35;;;3.38;;
24084;SDS011;12268;52.110;5.548;2024-01-30T13:26:00;7.15;;;3.33;;
24084;SDS011;12268;52.110;5.548;2024-01-30T13:28:26;7.20;;;3.80;;
24084;SDS011;12268;52.110;5.548;2024-01-30T13:30:52;8.18;;;4.05;;
24084;SDS011;12268;52.110;5.548;2024-01-30T13:33:17;8.88;;;4.15;;
24084;SDS011;12268;52.110;5.548;2024-01-30T13:35:43;5.55;;;3.53;;
24084;SDS011;12268;52.110;5.548;2024-01-30T13:38:08;6.97;;;3.38;;
24084;SDS011;12268;52.110;5.548;2024-01-30T13:40:35;7.53;;;2.97;;
24084;SDS011;12268;52.110;5.548;2024-01-30T13:43:00;9.75;;;4.35;;
24084;SDS011;12268;52.110;5.548;2024-01-30T13:45:26;5.55;;;3.22;;
24084;SDS011;12268;52.110;5.548;2024-01-30T13:47:51;4.07;;;2.67;;
24084;SDS011;12268;52.110;5.548;2024-01-30T13:50:17;2.85;;;2.08;;
24084;SDS011;12268;52.110;5.548;2024-01-30T13:52:43;2.67;;;1.92;;
24084;SDS011;12268;52.110;5.548;2024-01-30T13:55:09;2.45;;;1.67;;
24084;SDS011;12268;52.110;5.548;2024-01-30T13:57:38;2.15;;;1.88;;
24084;SDS011;12268;52.110;5.548;2024-01-30T14:00:04;3.60;;;1.98;;
24084;SDS011;12268;52.110;5.548;2024-01-30T14:02:31;3.10;;;1.58;;
24084;SDS011;12268;52.110;5.548;2024-01-30T14:04:57;1.80;;;1.30;;
24084;SDS011;12268;52.110;5.548;2024-01-30T14:07:23;1.60;;;1.40;;
24084;SDS011;12268;52.110;5.548;2024-01-30T14:09:49;1.45;;;1.35;;
24084;SDS011;12268;52.110;5.548;2024-01-30T14:12:14;3.03;;;1.77;;
24084;SDS011;12268;52.110;5.548;2024-01-30T14:14:40;1.50;;;1.40;;
24084;SDS011;12268;52.110;5.548;2024-01-30T14:17:07;3.38;;;2.13;;
24084;SDS011;12268;52.110;5.548;2024-01-30T14:19:35;3.78;;;1.25;;
24084;SDS011;12268;52.110;5.548;2024-01-30T14:22:01;1.85;;;1.67;;
24084;SDS011;12268;52.110;5.548;2024-01-30T14:24:27;5.32;;;1.92;;
24084;SDS011;12268;52.110;5.548;2024-01-30T14:26:52;4.32;;;1.90;;
24084;SDS011;12268;52.110;5.548;2024-01-30T14:29:18;3.72;;;2.67;;
24084;SDS011;12268;52.110;5.548;2024-01-30T14:31:44;3.10;;;2.25;;
24084;SDS011;12268;52.110;5.548;2024-01-30T14:34:09;5.07;;;2.53;;